createdAt,value
2019-05-01T00:02:10.122Z,7.20
2019-05-01T00:04:47.721Z,7.53
2019-05-01T00:07:19.304Z,6.00
2019-05-01T00:09:49.311Z,7.00
2019-05-01T00:12:19.720Z,7.83
2019-05-01T00:14:49.809Z,7.00
2019-05-01T00:17:21.547Z,6.60
2019-05-01T00:19:51.382Z,7.87
2019-05-01T00:22:21.248Z,10.93
2019-05-01T00:24:51.105Z,9.27
2019-05-01T00:27:20.979Z,9.13
2019-05-01T00:29:51.146Z,11.47
2019-05-01T00:32:22.082Z,13.60
2019-05-01T00:34:52.083Z,9.80
2019-05-01T00:37:21.991Z,7.03
2019-05-01T00:39:51.850Z,8.13
2019-05-01T00:42:21.827Z,7.77
2019-05-01T00:44:51.676Z,9.57
2019-05-01T00:47:21.672Z,7.33
2019-05-01T00:49:51.592Z,10.80
2019-05-01T00:52:21.447Z,8.23
2019-05-01T00:54:53.423Z,8.33
2019-05-01T00:57:32.409Z,7.60
2019-05-01T01:00:10.462Z,8.83
2019-05-01T01:02:42.043Z,10.93
2019-05-01T01:05:11.975Z,10.00
2019-05-01T01:07:41.987Z,8.07
2019-05-01T01:10:12.267Z,8.63
2019-05-01T01:12:42.099Z,9.93
2019-05-01T01:15:12.443Z,11.10
2019-05-01T01:17:42.437Z,10.80
2019-05-01T01:20:12.814Z,9.13
2019-05-01T01:22:42.952Z,10.70
2019-05-01T01:25:13.399Z,9.93
2019-05-01T01:27:43.476Z,12.13
2019-05-01T01:30:15.653Z,9.23
2019-05-01T01:32:45.493Z,8.60
2019-05-01T01:35:15.459Z,9.03
2019-05-01T01:37:45.373Z,10.13
2019-05-01T01:40:16.513Z,8.57
2019-05-01T01:42:48.352Z,9.57
2019-05-01T01:45:20.075Z,7.87
2019-05-01T01:48:09.911Z,9.43
2019-05-01T01:50:42.860Z,9.30
2019-05-01T01:53:15.051Z,7.70
2019-05-01T01:55:46.673Z,8.60
2019-05-01T01:58:17.559Z,11.30
2019-05-01T02:01:09.689Z,7.53
2019-05-01T02:03:39.551Z,8.73
2019-05-01T02:06:09.621Z,8.50
2019-05-01T02:08:39.923Z,8.03
2019-05-01T02:11:09.917Z,9.47
2019-05-01T02:13:40.068Z,10.20
2019-05-01T02:16:09.974Z,10.53
2019-05-01T02:18:40.050Z,7.93
2019-05-01T02:21:10.006Z,10.37
2019-05-01T02:23:39.978Z,8.33
2019-05-01T02:26:11.712Z,11.43
2019-05-01T02:28:53.174Z,11.20
2019-05-01T02:31:35.790Z,8.80
2019-05-01T02:34:06.895Z,10.67
2019-05-01T02:36:38.395Z,10.47
2019-05-01T02:39:09.683Z,9.07
2019-05-01T02:41:42.699Z,8.43
2019-05-01T02:44:18.600Z,11.20
2019-05-01T02:46:50.979Z,10.47
2019-05-01T02:49:36.071Z,8.03
2019-05-01T02:52:09.041Z,11.23
2019-05-01T02:54:40.703Z,10.40
2019-05-01T02:57:12.573Z,11.97
2019-05-01T02:59:45.771Z,9.67
2019-05-01T03:02:17.246Z,13.47
2019-05-01T03:04:47.931Z,11.83
2019-05-01T03:07:19.961Z,10.70
2019-05-01T03:09:51.486Z,9.87
2019-05-01T03:12:24.622Z,12.43
2019-05-01T03:14:57.405Z,11.73
2019-05-01T03:17:44.972Z,12.03
2019-05-01T03:20:26.647Z,11.13
2019-05-01T03:23:13.752Z,9.97
2019-05-01T03:25:43.920Z,12.37
2019-05-01T03:28:14.219Z,10.20
2019-05-01T03:30:44.747Z,11.90
2019-05-01T03:33:14.726Z,11.90
2019-05-01T03:35:44.734Z,11.17
2019-05-01T03:38:15.015Z,10.50
2019-05-01T03:40:45.243Z,11.37
2019-05-01T03:43:15.392Z,9.13
2019-05-01T03:45:45.475Z,9.87
2019-05-01T03:48:15.781Z,11.63
2019-05-01T03:50:47.123Z,12.13
2019-05-01T03:53:18.549Z,9.07
2019-05-01T03:55:48.976Z,10.97
2019-05-01T03:58:19.522Z,11.53
2019-05-01T04:00:51.281Z,9.53
2019-05-01T04:03:35.375Z,12.00
2019-05-01T04:06:06.362Z,12.40
2019-05-01T04:08:37.121Z,13.40
2019-05-01T04:11:07.319Z,10.17
2019-05-01T04:13:37.668Z,10.13
2019-05-01T04:16:08.635Z,13.67
2019-05-01T04:18:39.437Z,12.93
2019-05-01T04:21:09.871Z,10.50
2019-05-01T04:23:42.191Z,11.83
2019-05-01T04:26:12.473Z,10.70
2019-05-01T04:28:53.604Z,10.83
2019-05-01T04:31:25.900Z,9.80
2019-05-01T04:33:57.387Z,12.00
2019-05-01T04:36:29.123Z,9.17
2019-05-01T04:39:11.067Z,10.93
2019-05-01T04:41:41.017Z,12.03
2019-05-01T04:44:11.381Z,10.77
2019-05-01T04:46:41.343Z,10.23
2019-05-01T04:49:11.838Z,8.83
2019-05-01T04:51:42.179Z,11.40
2019-05-01T04:54:12.713Z,10.60
2019-05-01T04:56:43.402Z,9.57
2019-05-01T04:59:14.283Z,9.20
2019-05-01T05:01:58.334Z,8.37
2019-05-01T05:04:30.016Z,7.60
2019-05-01T05:07:01.194Z,9.37
2019-05-01T05:09:42.188Z,9.27
2019-05-01T05:12:17.333Z,7.17
2019-05-01T05:14:58.456Z,8.70
2019-05-01T05:17:28.846Z,9.07
2019-05-01T05:19:58.985Z,7.90
2019-05-01T05:22:30.256Z,7.33
2019-05-01T05:25:00.604Z,8.03
2019-05-01T05:27:30.806Z,9.90
2019-05-01T05:30:01.488Z,8.17
2019-05-01T05:32:33.565Z,8.37
2019-05-01T05:35:05.967Z,7.70
2019-05-01T05:37:58.073Z,8.70
2019-05-01T05:40:32.355Z,8.47
2019-05-01T05:43:04.498Z,9.27
2019-05-01T05:45:34.836Z,10.37
2019-05-01T05:48:05.087Z,9.20
2019-05-01T05:50:41.268Z,10.40
2019-05-01T05:53:15.838Z,9.33
2019-05-01T05:56:01.959Z,9.17
2019-05-01T05:58:36.569Z,9.70
2019-05-01T06:01:25.380Z,9.27
2019-05-01T06:04:17.090Z,10.73
2019-05-01T06:06:54.390Z,9.43
2019-05-01T06:09:29.047Z,10.73
2019-05-01T06:12:08.963Z,8.13
2019-05-01T06:15:02.278Z,7.53
2019-05-01T06:17:42.994Z,8.60
2019-05-01T06:20:27.699Z,8.23
2019-05-01T06:23:04.261Z,11.53
2019-05-01T06:25:37.830Z,10.83
2019-05-01T06:28:09.668Z,9.63
2019-05-01T06:30:41.934Z,11.00
2019-05-01T06:33:12.490Z,8.83
2019-05-01T06:35:42.589Z,9.40
2019-05-01T06:38:15.713Z,9.80
2019-05-01T06:40:48.105Z,10.57
2019-05-01T06:43:25.368Z,11.07
2019-05-01T06:45:56.296Z,11.97
2019-05-01T06:48:28.227Z,11.73
2019-05-01T06:50:59.784Z,11.53
2019-05-01T06:53:29.877Z,11.63
2019-05-01T06:56:00.012Z,50.77
2019-05-01T06:58:32.712Z,16.80
2019-05-01T07:01:01.666Z,14.53
2019-05-01T07:03:31.872Z,10.47
2019-05-01T07:06:13.791Z,11.13
2019-05-01T07:08:34.463Z,14.30
2019-05-01T07:11:05.853Z,11.60
2019-05-01T07:13:40.136Z,12.53
2019-05-01T07:16:09.120Z,12.90
2019-05-01T07:18:39.322Z,11.47
2019-05-01T07:21:09.280Z,13.40
2019-05-01T07:23:39.333Z,13.87
2019-05-01T07:26:09.968Z,13.40
2019-05-01T07:28:42.705Z,12.67
2019-05-01T07:31:14.473Z,17.90
2019-05-01T07:33:46.980Z,13.83
2019-05-01T07:36:18.383Z,14.47
2019-05-01T07:38:48.669Z,15.50
2019-05-01T07:41:18.595Z,15.63
2019-05-01T07:44:06.955Z,19.07
2019-05-01T07:46:38.577Z,17.90
2019-05-01T07:49:12.982Z,17.83
2019-05-01T07:51:43.410Z,18.97
2019-05-01T07:54:13.569Z,21.13
2019-05-01T07:56:44.997Z,23.43
2019-05-01T07:59:15.183Z,25.67
2019-05-01T08:01:49.944Z,21.27
2019-05-01T08:04:26.849Z,20.90
2019-05-01T08:06:52.006Z,24.13
2019-05-01T08:09:21.479Z,21.93
2019-05-01T08:11:51.402Z,27.53
2019-05-01T08:14:21.334Z,26.30
2019-05-01T08:16:51.393Z,29.03
2019-05-01T08:19:40.718Z,32.17
2019-05-01T08:22:12.361Z,23.83
2019-05-01T08:24:42.275Z,25.63
2019-05-01T08:27:15.724Z,26.97
2019-05-01T08:29:54.239Z,26.90
2019-05-01T08:32:33.740Z,25.53
2019-05-01T08:35:05.754Z,27.13
2019-05-01T08:37:35.707Z,24.13
2019-05-01T08:40:07.316Z,26.80
2019-05-01T08:42:42.728Z,24.17
2019-05-01T08:45:14.615Z,27.77
2019-05-01T08:48:01.516Z,27.27
2019-05-01T08:50:31.689Z,25.13
2019-05-01T08:53:01.567Z,28.97
2019-05-01T08:55:32.772Z,27.40
2019-05-01T08:58:02.747Z,29.40
2019-05-01T09:00:36.432Z,27.23
2019-05-01T09:03:08.707Z,30.90
2019-05-01T09:05:36.233Z,29.87
2019-05-01T09:08:06.302Z,28.50
2019-05-01T09:10:36.353Z,29.77
2019-05-01T09:13:06.594Z,31.77
2019-05-01T09:15:36.636Z,31.77
2019-05-01T09:18:06.808Z,30.33
2019-05-01T09:20:38.795Z,32.27
2019-05-01T09:23:09.537Z,26.80
2019-05-01T09:25:54.497Z,30.83
2019-05-01T09:28:29.518Z,27.10
2019-05-01T09:31:02.090Z,27.53
2019-05-01T09:33:34.084Z,28.53
2019-05-01T09:36:04.252Z,26.17
2019-05-01T09:38:35.189Z,25.67
2019-05-01T09:41:05.531Z,24.37
2019-05-01T09:43:36.902Z,25.00
2019-05-01T09:46:07.153Z,25.43
2019-05-01T09:48:37.151Z,27.33
2019-05-01T09:51:17.961Z,27.50
2019-05-01T09:53:52.497Z,24.80
2019-05-01T09:56:24.050Z,26.47
2019-05-01T09:58:54.876Z,28.80
2019-05-01T10:01:31.679Z,29.83
2019-05-01T10:03:57.178Z,30.93
2019-05-01T10:06:27.214Z,27.47
2019-05-01T10:08:57.163Z,26.27
2019-05-01T10:11:27.028Z,28.77
2019-05-01T10:13:58.551Z,30.07
2019-05-01T10:16:28.542Z,26.03
2019-05-01T10:18:58.488Z,30.30
2019-05-01T10:21:28.965Z,29.60
2019-05-01T10:23:58.979Z,27.67
2019-05-01T10:26:33.066Z,29.40
2019-05-01T10:29:25.936Z,24.70
2019-05-01T10:32:21.520Z,24.07
2019-05-01T10:34:56.868Z,23.03
2019-05-01T10:37:28.614Z,24.60
2019-05-01T10:40:01.365Z,25.13
2019-05-01T10:42:31.711Z,27.90
2019-05-01T10:45:01.766Z,25.57
2019-05-01T10:47:31.818Z,27.43
2019-05-01T10:50:04.108Z,23.00
2019-05-01T10:52:37.142Z,23.13
2019-05-01T10:55:10.233Z,23.13
2019-05-01T10:57:42.214Z,27.47
2019-05-01T11:00:14.103Z,22.37
2019-05-01T11:02:44.043Z,21.77
2019-05-01T11:05:14.065Z,25.63
2019-05-01T11:07:45.751Z,25.70
2019-05-01T11:10:16.037Z,26.40
2019-05-01T11:12:45.971Z,26.23
2019-05-01T11:15:16.297Z,28.13
2019-05-01T11:17:46.712Z,26.77
2019-05-01T11:20:16.673Z,28.23
2019-05-01T11:22:46.644Z,28.80
2019-05-01T11:25:18.093Z,30.27
2019-05-01T11:27:48.190Z,26.93
2019-05-01T11:30:18.187Z,28.83
2019-05-01T11:33:01.753Z,26.10
2019-05-01T11:35:49.818Z,29.30
2019-05-01T11:38:24.105Z,31.73
2019-05-01T11:41:04.760Z,32.93
2019-05-01T11:43:34.651Z,30.43
2019-05-01T11:46:04.820Z,29.03
2019-05-01T11:48:34.771Z,28.37
2019-05-01T11:51:04.879Z,28.50
2019-05-01T11:53:34.743Z,28.23
2019-05-01T11:56:05.444Z,26.47
2019-05-01T11:58:35.329Z,27.90
2019-05-01T12:01:05.897Z,24.10
2019-05-01T12:03:35.907Z,26.40
2019-05-01T12:06:05.836Z,30.30
2019-05-01T12:08:35.735Z,28.50
2019-05-01T12:11:07.488Z,28.73
2019-05-01T12:13:43.939Z,28.70
2019-05-01T12:16:22.816Z,31.07
2019-05-01T12:18:52.765Z,30.60
2019-05-01T12:21:22.761Z,33.07
2019-05-01T12:23:52.624Z,28.40
2019-05-01T12:26:23.572Z,26.27
2019-05-01T12:28:53.503Z,32.43
2019-05-01T12:31:23.427Z,25.63
2019-05-01T12:33:53.380Z,29.40
2019-05-01T12:36:35.157Z,26.00
2019-05-01T12:38:54.827Z,26.20
2019-05-01T12:41:29.397Z,23.53
2019-05-01T12:43:59.286Z,26.17
2019-05-01T12:46:40.127Z,24.83
2019-05-01T12:49:10.092Z,30.10
2019-05-01T12:51:41.514Z,28.93
2019-05-01T12:54:13.132Z,30.87
2019-05-01T12:56:47.579Z,32.20
2019-05-01T12:59:17.649Z,30.20
2019-05-01T13:01:47.615Z,26.80
2019-05-01T13:04:17.560Z,22.77
2019-05-01T13:06:51.831Z,26.57
2019-05-01T13:09:21.778Z,24.97
2019-05-01T13:11:51.911Z,24.77
2019-05-01T13:14:22.812Z,22.10
2019-05-01T13:16:52.713Z,23.30
2019-05-01T13:19:23.747Z,19.73
2019-05-01T13:21:53.695Z,18.73
2019-05-01T13:24:23.608Z,23.10
2019-05-01T13:26:55.223Z,19.50
2019-05-01T13:29:47.601Z,18.83
2019-05-01T13:32:45.055Z,19.97
2019-05-01T13:35:15.292Z,21.97
2019-05-01T13:37:45.188Z,19.87
2019-05-01T13:40:16.253Z,20.13
2019-05-01T13:42:46.265Z,20.00
2019-05-01T13:45:16.589Z,18.03
2019-05-01T13:47:46.515Z,18.37
2019-05-01T13:50:16.648Z,17.33
2019-05-01T13:52:46.957Z,17.77
2019-05-01T13:55:17.437Z,18.27
2019-05-01T13:57:47.511Z,17.37
2019-05-01T14:00:19.286Z,16.13
2019-05-01T14:02:50.104Z,17.13
2019-05-01T14:05:20.499Z,16.80
2019-05-01T14:07:50.584Z,17.03
2019-05-01T14:10:20.665Z,15.40
2019-05-01T14:12:50.829Z,15.60
2019-05-01T14:15:20.732Z,16.10
2019-05-01T14:17:50.698Z,16.97
2019-05-01T14:20:34.442Z,16.17
2019-05-01T14:23:06.191Z,16.13
2019-05-01T14:25:53.722Z,16.57
2019-05-01T14:28:23.601Z,17.33
2019-05-01T14:30:53.559Z,18.30
2019-05-01T14:33:23.430Z,13.50
2019-05-01T14:35:53.365Z,12.97
2019-05-01T14:38:24.460Z,12.10
2019-05-01T14:40:54.450Z,14.73
2019-05-01T14:43:24.505Z,11.57
2019-05-01T14:45:55.963Z,14.30
2019-05-01T14:48:26.114Z,16.50
2019-05-01T14:50:56.227Z,15.63
2019-05-01T14:53:26.111Z,14.77
2019-05-01T14:55:58.028Z,13.33
2019-05-01T14:58:28.120Z,14.60
2019-05-01T15:00:58.000Z,13.40
2019-05-01T15:03:28.649Z,12.87
2019-05-01T15:06:03.684Z,13.73
2019-05-01T15:08:33.683Z,12.70
2019-05-01T15:11:05.765Z,12.77
2019-05-01T15:13:46.372Z,12.87
2019-05-01T15:16:18.111Z,10.87
2019-05-01T15:19:05.600Z,10.93
2019-05-01T15:21:35.565Z,11.10
2019-05-01T15:24:05.775Z,10.30
2019-05-01T15:26:35.820Z,11.00
2019-05-01T15:29:05.883Z,10.87
2019-05-01T15:31:35.857Z,10.37
2019-05-01T15:34:05.884Z,10.80
2019-05-01T15:36:36.161Z,12.03
2019-05-01T15:39:10.271Z,10.20
2019-05-01T15:41:59.422Z,10.83
2019-05-01T15:44:30.981Z,10.93
2019-05-01T15:47:00.911Z,10.40
2019-05-01T15:49:30.840Z,10.17
2019-05-01T15:52:00.853Z,10.90
2019-05-01T15:54:30.722Z,10.80
2019-05-01T15:57:01.353Z,10.63
2019-05-01T15:59:43.427Z,11.23
2019-05-01T16:02:26.917Z,12.47
2019-05-01T16:05:01.117Z,11.47
2019-05-01T16:07:44.108Z,10.87
2019-05-01T16:10:19.297Z,11.07
2019-05-01T16:12:52.162Z,13.53
2019-05-01T16:15:24.155Z,11.37
2019-05-01T16:17:54.012Z,11.10
2019-05-01T16:20:23.920Z,11.33
2019-05-01T16:22:53.919Z,12.93
2019-05-01T16:25:23.979Z,10.73
2019-05-01T16:27:54.105Z,13.07
2019-05-01T16:30:27.227Z,11.03
2019-05-01T16:32:57.956Z,10.37
2019-05-01T16:35:31.848Z,10.83
2019-05-01T16:38:03.802Z,10.07
2019-05-01T16:40:46.032Z,9.67
2019-05-01T16:43:18.916Z,10.70
2019-05-01T16:45:50.221Z,11.40
2019-05-01T16:48:22.069Z,13.40
2019-05-01T16:50:52.853Z,12.07
2019-05-01T16:53:23.191Z,11.87
2019-05-01T16:55:53.460Z,13.17
2019-05-01T16:58:23.507Z,10.73
2019-05-01T17:00:56.564Z,10.97
2019-05-01T17:03:34.289Z,11.33
2019-05-01T17:06:15.344Z,11.77
2019-05-01T17:08:49.375Z,11.30
2019-05-01T17:11:21.042Z,11.00
2019-05-01T17:13:50.981Z,10.27
2019-05-01T17:16:23.182Z,12.90
2019-05-01T17:18:54.455Z,12.53
2019-05-01T17:21:24.316Z,12.03
2019-05-01T17:23:54.231Z,10.97
2019-05-01T17:26:24.728Z,11.07
2019-05-01T17:28:54.845Z,10.87
2019-05-01T17:31:27.649Z,10.83
2019-05-01T17:33:58.648Z,11.13
2019-05-01T17:36:28.516Z,11.90
2019-05-01T17:38:58.392Z,10.57
2019-05-01T17:41:28.666Z,11.67
2019-05-01T17:44:05.502Z,13.03
2019-05-01T17:46:41.791Z,10.53
2019-05-01T17:49:18.997Z,11.73
2019-05-01T17:51:51.404Z,12.00
2019-05-01T17:54:24.067Z,11.70
2019-05-01T17:56:56.225Z,11.17
2019-05-01T17:59:30.058Z,10.77
2019-05-01T18:02:10.124Z,12.23
2019-05-01T18:04:54.700Z,12.17
2019-05-01T18:07:33.193Z,13.27
2019-05-01T18:10:03.115Z,12.80
2019-05-01T18:12:36.463Z,12.47
2019-05-01T18:15:08.726Z,13.87
2019-05-01T18:17:44.305Z,13.10
2019-05-01T18:20:16.438Z,13.03
2019-05-01T18:22:58.011Z,13.03
2019-05-01T18:25:49.150Z,13.53
2019-05-01T18:28:29.953Z,17.90
2019-05-01T18:30:58.908Z,18.30
2019-05-01T18:33:30.710Z,15.50
2019-05-01T18:36:00.659Z,14.97
2019-05-01T18:38:34.964Z,15.23
2019-05-01T18:41:09.427Z,14.60
2019-05-01T18:43:39.472Z,17.67
2019-05-01T18:46:11.431Z,14.20
2019-05-01T18:48:41.560Z,13.87
2019-05-01T18:51:11.568Z,14.00
2019-05-01T18:53:41.966Z,20.37
2019-05-01T18:56:11.891Z,14.70
2019-05-01T18:58:42.110Z,15.70
2019-05-01T19:01:12.142Z,16.20
2019-05-01T19:03:42.709Z,15.20
2019-05-01T19:06:13.872Z,15.77
2019-05-01T19:08:43.827Z,17.93
2019-05-01T19:11:14.442Z,20.60
2019-05-01T19:13:44.428Z,19.67
2019-05-01T19:16:16.054Z,20.83
2019-05-01T19:18:48.819Z,21.40
2019-05-01T19:21:23.736Z,18.97
2019-05-01T19:24:00.605Z,17.13
2019-05-01T19:26:31.620Z,19.37
2019-05-01T19:29:03.742Z,19.77
2019-05-01T19:31:34.271Z,17.83
2019-05-01T19:34:04.530Z,21.40
2019-05-01T19:36:35.463Z,18.93
2019-05-01T19:39:11.807Z,16.73
2019-05-01T19:41:43.831Z,19.60
2019-05-01T19:44:18.842Z,18.37
2019-05-01T19:46:47.698Z,19.73
2019-05-01T19:49:17.746Z,19.17
2019-05-01T19:51:48.590Z,20.47
2019-05-01T19:54:23.157Z,19.10
2019-05-01T19:56:51.528Z,18.73
2019-05-01T19:59:22.335Z,21.20
2019-05-01T20:01:53.952Z,19.83
2019-05-01T20:04:26.096Z,22.07
2019-05-01T20:06:57.965Z,21.37
2019-05-01T20:09:28.296Z,19.37
2019-05-01T20:11:59.625Z,18.80
2019-05-01T20:14:30.443Z,17.67
2019-05-01T20:17:04.860Z,18.83
2019-05-01T20:19:33.455Z,19.47
2019-05-01T20:22:04.822Z,19.03
2019-05-01T20:24:39.738Z,19.30
2019-05-01T20:27:07.222Z,19.53
2019-05-01T20:29:37.345Z,20.37
2019-05-01T20:32:07.377Z,21.33
2019-05-01T20:34:39.271Z,19.73
2019-05-01T20:37:10.137Z,19.10
2019-05-01T20:39:41.473Z,20.10
2019-05-01T20:42:13.477Z,18.63
2019-05-01T20:44:44.086Z,19.77
2019-05-01T20:47:15.551Z,19.87
2019-05-01T20:49:46.119Z,21.07
2019-05-01T20:52:16.148Z,18.67
2019-05-01T20:54:46.128Z,19.70
2019-05-01T20:57:20.924Z,20.50
2019-05-01T20:59:49.310Z,26.93
2019-05-01T21:02:19.223Z,20.87
2019-05-01T21:04:53.559Z,23.63
2019-05-01T21:07:31.098Z,19.63
2019-05-01T21:10:02.608Z,20.43
2019-05-01T21:12:32.674Z,21.97
2019-05-01T21:15:02.979Z,21.63
2019-05-01T21:17:33.988Z,20.80
2019-05-01T21:20:05.858Z,21.37
2019-05-01T21:22:35.748Z,23.63
2019-05-01T21:25:06.299Z,24.10
2019-05-01T21:27:36.163Z,23.93
2019-05-01T21:30:09.403Z,23.73
2019-05-01T21:32:39.261Z,21.87
2019-05-01T21:35:09.135Z,22.30
2019-05-01T21:37:40.073Z,21.80
2019-05-01T21:40:10.178Z,23.83
2019-05-01T21:42:40.116Z,28.67
2019-05-01T21:45:12.303Z,26.40
2019-05-01T21:47:42.650Z,26.30
2019-05-01T21:50:13.325Z,24.93
2019-05-01T21:52:43.761Z,27.10
2019-05-01T21:55:13.864Z,25.60
2019-05-01T21:57:45.031Z,28.47
2019-05-01T22:00:20.005Z,25.13
2019-05-01T22:02:49.586Z,28.83
2019-05-01T22:05:20.521Z,25.50
2019-05-01T22:07:50.396Z,26.57
2019-05-01T22:10:21.626Z,25.33
2019-05-01T22:12:51.992Z,27.17
2019-05-01T22:15:27.432Z,26.33
2019-05-01T22:18:01.643Z,29.33
2019-05-01T22:20:36.451Z,25.80
2019-05-01T22:23:08.325Z,26.27
2019-05-01T22:25:42.555Z,29.00
2019-05-01T22:28:30.402Z,25.53
2019-05-01T22:31:01.984Z,26.37
2019-05-01T22:33:31.866Z,28.90
2019-05-01T22:36:01.802Z,28.97
2019-05-01T22:38:31.750Z,28.43
2019-05-01T22:41:07.265Z,27.10
2019-05-01T22:43:37.330Z,28.60
2019-05-01T22:46:09.061Z,29.03
2019-05-01T22:48:39.918Z,28.77
2019-05-01T22:51:11.480Z,27.13
2019-05-01T22:53:41.360Z,29.10
2019-05-01T22:56:11.214Z,26.67
2019-05-01T22:58:41.178Z,29.57
2019-05-01T23:01:13.218Z,28.27
2019-05-01T23:03:44.329Z,27.10
2019-05-01T23:06:14.898Z,27.90
2019-05-01T23:08:45.007Z,28.13
2019-05-01T23:11:20.164Z,27.57
2019-05-01T23:13:46.502Z,25.10
2019-05-01T23:16:18.076Z,27.80
2019-05-01T23:18:51.936Z,28.17
2019-05-01T23:21:19.711Z,29.93
2019-05-01T23:23:49.669Z,30.03
2019-05-01T23:26:19.666Z,28.57
2019-05-01T23:28:49.783Z,28.07
2019-05-01T23:31:20.127Z,26.43
2019-05-01T23:33:51.870Z,26.97
2019-05-01T23:36:23.685Z,30.00
2019-05-01T23:38:53.365Z,28.83
2019-05-01T23:41:44.622Z,26.40
2019-05-01T23:43:58.306Z,26.33
2019-05-01T23:46:26.364Z,29.63
2019-05-01T23:48:56.305Z,27.37
2019-05-01T23:51:28.715Z,30.80
2019-05-01T23:53:57.723Z,28.83
2019-05-01T23:56:31.026Z,30.60
2019-05-01T23:58:59.157Z,27.63
